Time;durP1;ratioP1;P1;durP2;ratioP2;P2;SDS_P1;SDS_P2;PMS_P1;PMS_P2;Temp;Humidity;BMP_temperature;BMP_pressure;BME280_temperature;BME280_humidity;BME280_pressure;Samples;Min_cycle;Max_cycle;Signal;HPM_P1;HPM_P2
2022/11/08 00:03:34;;;;;;;3.92;1.30;;;19.40;64.40;;;;;;5052852;28;20040;-72
2022/11/08 00:14:12;;;;;;;3.85;1.40;;;19.40;63.60;;;;;;5053699;28;20472;-71
2022/11/08 00:16:38;;;;;;;3.20;1.42;;;19.40;63.60;;;;;;5062766;28;20131;-71
2022/11/08 00:19:03;;;;;;;3.55;1.40;;;19.40;63.60;;;;;;5056455;28;20043;-72
2022/11/08 00:21:29;;;;;;;3.22;1.27;;;19.40;63.50;;;;;;5055653;28;20074;-72
2022/11/08 00:23:54;;;;;;;2.92;1.40;;;19.40;63.50;;;;;;5058602;28;20507;-71
2022/11/08 00:26:20;;;;;;;3.92;1.60;;;19.40;63.50;;;;;;5052272;28;20658;-71
2022/11/08 00:28:46;;;;;;;3.78;1.30;;;19.40;63.50;;;;;;5054770;28;20048;-70
2022/11/08 00:31:11;;;;;;;4.00;1.33;;;19.40;63.60;;;;;;5055763;28;20053;-71
2022/11/08 00:33:37;;;;;;;2.47;1.20;;;19.40;63.50;;;;;;5054354;28;20040;-71
2022/11/08 00:36:03;;;;;;;4.22;1.63;;;19.40;63.50;;;;;;5056552;28;20090;-71
2022/11/08 00:38:28;;;;;;;2.67;0.90;;;19.40;63.50;;;;;;5056047;28;20125;-72
2022/11/08 00:40:54;;;;;;;6.07;1.23;;;19.40;63.40;;;;;;5054173;28;20557;-71
2022/11/08 00:43:20;;;;;;;2.50;1.20;;;19.40;63.40;;;;;;5050109;28;20081;-71
2022/11/08 00:45:46;;;;;;;3.67;1.17;;;19.40;63.40;;;;;;5053127;28;20101;-71
2022/11/08 00:48:11;;;;;;;5.32;1.20;;;19.40;63.40;;;;;;5055723;28;20063;-72
2022/11/08 00:50:38;;;;;;;1.98;1.10;;;19.40;63.40;;;;;;5057675;28;20055;-72
2022/11/08 00:53:05;;;;;;;3.67;1.30;;;19.40;63.40;;;;;;5056664;28;20398;-71
2022/11/08 00:55:30;;;;;;;4.13;1.25;;;19.40;63.40;;;;;;5034425;28;20133;-72
2022/11/08 00:57:56;;;;;;;5.30;1.58;;;19.40;63.30;;;;;;5061136;28;20132;-72
2022/11/08 01:00:21;;;;;;;5.55;1.30;;;19.40;63.30;;;;;;5051779;28;20416;-70
2022/11/08 01:02:47;;;;;;;3.60;1.30;;;19.40;63.30;;;;;;5054102;28;20045;-71
2022/11/08 01:05:13;;;;;;;3.50;1.33;;;19.40;63.30;;;;;;5050180;28;20044;-72
2022/11/08 01:07:38;;;;;;;4.47;1.38;;;19.40;63.20;;;;;;5056073;28;20086;-71
2022/11/08 01:10:05;;;;;;;5.30;1.40;;;19.40;63.20;;;;;;5059391;28;20056;-71
2022/11/08 01:12:31;;;;;;;6.70;1.48;;;19.40;63.20;;;;;;5053119;28;20565;-71
2022/11/08 01:14:56;;;;;;;5.32;1.58;;;19.40;63.20;;;;;;5051590;28;20169;-71
2022/11/08 01:17:22;;;;;;;6.28;1.38;;;19.40;63.20;;;;;;5053150;28;20109;-71
2022/11/08 01:19:48;;;;;;;3.72;1.33;;;19.30;63.10;;;;;;5054381;28;20155;-71
2022/11/08 01:22:13;;;;;;;5.07;1.75;;;19.40;63.10;;;;;;5054970;28;20045;-71
2022/11/08 01:24:39;;;;;;;3.28;1.30;;;19.40;63.90;;;;;;5054370;28;20135;-70
2022/11/08 01:27:04;;;;;;;3.00;1.48;;;19.40;63.20;;;;;;5053948;28;20123;-71
2022/11/08 01:29:31;;;;;;;5.70;1.30;;;19.30;63.00;;;;;;5050791;28;20052;-71
2022/11/08 01:31:57;;;;;;;4.60;1.30;;;19.30;63.80;;;;;;5052846;28;20501;-71
2022/11/08 01:34:22;;;;;;;3.55;1.13;;;19.30;63.00;;;;;;5050521;28;20052;-72
2022/11/08 01:36:48;;;;;;;4.22;1.20;;;19.30;62.90;;;;;;5054965;28;20046;-72
2022/11/08 01:39:14;;;;;;;3.15;1.15;;;19.30;62.90;;;;;;5053596;28;20037;-70
2022/11/08 01:41:39;;;;;;;4.63;1.23;;;19.30;62.90;;;;;;5055524;28;20061;-71
2022/11/08 01:44:05;;;;;;;3.70;1.42;;;19.30;62.90;;;;;;5055112;28;20074;-71
2022/11/08 01:46:39;;;;;;;3.20;1.40;;;19.30;62.90;;;;;;5054154;28;20060;-71
2022/11/08 01:49:28;;;;;;;4.45;1.27;;;19.30;62.90;;;;;;5056550;28;20218;-70
2022/11/08 01:51:59;;;;;;;4.00;1.55;;;19.30;62.80;;;;;;5050570;28;20049;-70
2022/11/08 01:54:44;;;;;;;2.85;1.20;;;19.30;62.90;;;;;;5056267;28;20052;-71
2022/11/08 01:57:13;;;;;;;4.13;1.50;;;19.30;62.90;;;;;;5050201;28;20048;-71
2022/11/08 01:59:41;;;;;;;5.43;1.20;;;19.30;62.90;;;;;;5053573;28;20113;-71
2022/11/08 02:02:09;;;;;;;4.32;1.30;;;19.30;62.80;;;;;;5054476;28;20037;-71
2022/11/08 02:04:38;;;;;;;5.60;1.38;;;19.30;62.80;;;;;;5052213;28;20037;-71
2022/11/08 02:07:06;;;;;;;3.88;1.38;;;19.30;62.80;;;;;;5063382;28;20048;-71
2022/11/08 02:09:33;;;;;;;5.03;1.30;;;19.30;62.80;;;;;;5052366;28;20060;-72
2022/11/08 02:11:59;;;;;;;2.47;1.03;;;19.30;62.70;;;;;;5054588;28;20437;-71
2022/11/08 02:14:25;;;;;;;4.22;1.15;;;19.30;62.70;;;;;;5050627;28;20052;-72
2022/11/08 02:16:50;;;;;;;4.10;1.13;;;19.30;62.70;;;;;;5062286;28;20036;-72
2022/11/08 02:19:24;;;;;;;3.10;1.17;;;19.30;62.70;;;;;;5053312;28;20094;-71
2022/11/08 02:22:02;;;;;;;4.32;1.20;;;19.30;62.60;;;;;;5051510;28;20475;-72
2022/11/08 02:24:27;;;;;;;3.28;1.17;;;19.30;62.60;;;;;;5049945;28;20048;-71
2022/11/08 02:26:54;;;;;;;3.58;1.27;;;19.30;62.60;;;;;;5052131;28;20097;-72
2022/11/08 02:29:26;;;;;;;3.90;1.40;;;19.30;62.60;;;;;;5048567;28;20036;-70
2022/11/08 02:31:52;;;;;;;3.33;1.20;;;19.30;62.60;;;;;;5052310;28;20032;-72
2022/11/08 02:34:21;;;;;;;4.30;1.25;;;19.20;62.50;;;;;;5052494;28;20044;-72
2022/11/08 02:36:48;;;;;;;4.75;1.52;;;19.30;62.50;;;;;;5063064;28;20051;-71
2022/11/08 02:39:13;;;;;;;3.53;1.20;;;19.30;62.60;;;;;;5058017;28;20045;-70
2022/11/08 02:41:39;;;;;;;5.03;1.65;;;19.30;62.50;;;;;;5056132;28;20044;-71
2022/11/08 02:44:05;;;;;;;5.38;1.45;;;19.30;62.50;;;;;;5056394;28;20060;-70
2022/11/08 02:46:30;;;;;;;4.07;1.25;;;19.30;62.40;;;;;;5052664;28;20459;-72
2022/11/08 02:48:56;;;;;;;4.25;1.27;;;19.30;62.40;;;;;;5058471;28;20045;-71
2022/11/08 02:51:21;;;;;;;4.72;1.10;;;19.30;62.40;;;;;;5055865;28;20186;-72
2022/11/08 02:53:47;;;;;;;4.03;1.52;;;19.30;62.40;;;;;;5063268;28;20455;-71
2022/11/08 02:56:13;;;;;;;2.60;1.20;;;19.20;62.40;;;;;;5055676;28;20085;-71
2022/11/08 02:58:38;;;;;;;5.43;1.42;;;19.30;62.40;;;;;;5058422;28;20059;-71
2022/11/08 03:01:04;;;;;;;4.32;1.50;;;19.30;62.40;;;;;;5057377;28;20052;-70
2022/11/08 03:03:29;;;;;;;3.58;1.30;;;19.30;62.40;;;;;;5058624;28;20047;-71
2022/11/08 03:05:56;;;;;;;3.85;1.83;;;19.30;62.30;;;;;;5056477;28;20106;-72
2022/11/08 03:08:21;;;;;;;4.03;1.20;;;19.30;62.30;;;;;;5089346;27;20531;-71
2022/11/08 03:10:47;;;;;;;2.55;1.20;;;19.20;62.30;;;;;;5060745;28;20056;-70
2022/11/08 03:13:12;;;;;;;2.88;1.25;;;19.30;62.30;;;;;;5059684;28;20143;-71
2022/11/08 03:15:38;;;;;;;2.33;1.00;;;19.30;62.30;;;;;;5058730;28;20424;-72
2022/11/08 03:18:04;;;;;;;3.22;1.30;;;19.20;62.20;;;;;;5053637;28;20123;-72
2022/11/08 03:20:30;;;;;;;2.42;1.00;;;19.30;62.20;;;;;;5055031;28;20128;-73
2022/11/08 03:23:00;;;;;;;3.40;1.30;;;19.30;62.20;;;;;;5055504;28;20143;-74
2022/11/08 03:25:26;;;;;;;5.18;1.30;;;19.30;62.20;;;;;;5053785;28;20044;-74
2022/11/08 03:27:52;;;;;;;3.53;1.40;;;19.20;62.90;;;;;;5060325;28;20451;-73
2022/11/08 03:30:17;;;;;;;3.83;1.20;;;19.30;62.30;;;;;;5053413;28;20033;-74
2022/11/08 03:32:45;;;;;;;5.22;1.23;;;19.20;62.10;;;;;;5051684;28;20044;-72
2022/11/08 03:35:14;;;;;;;3.67;1.13;;;19.30;62.10;;;;;;5050133;28;20179;-73
2022/11/08 03:37:39;;;;;;;3.25;1.20;;;19.20;62.10;;;;;;5057660;28;20085;-73
2022/11/08 03:40:06;;;;;;;4.00;1.27;;;19.20;62.10;;;;;;5058451;28;20067;-71
2022/11/08 03:42:31;;;;;;;4.30;1.60;;;19.20;62.00;;;;;;5053811;28;20080;-72
2022/11/08 03:44:57;;;;;;;4.85;1.40;;;19.20;62.10;;;;;;5053865;28;20148;-71
2022/11/08 03:47:22;;;;;;;3.47;1.10;;;19.20;62.00;;;;;;5053070;28;20059;-71
2022/11/08 03:49:48;;;;;;;4.43;1.30;;;19.30;62.00;;;;;;5055814;28;20105;-70
2022/11/08 03:52:13;;;;;;;3.00;1.15;;;19.20;62.00;;;;;;5059155;28;20138;-70
2022/11/08 03:54:39;;;;;;;3.38;1.15;;;19.20;62.00;;;;;;5068416;28;20043;-70
2022/11/08 03:57:04;;;;;;;4.00;1.23;;;19.20;61.90;;;;;;5055452;28;20028;-71
2022/11/08 03:59:30;;;;;;;3.05;1.30;;;19.20;61.90;;;;;;5036050;28;20044;-71
2022/11/08 04:01:55;;;;;;;4.45;1.60;;;19.20;61.90;;;;;;5056556;28;20024;-71
2022/11/08 04:04:21;;;;;;;2.80;1.00;;;19.20;61.90;;;;;;5056488;28;20040;-69
2022/11/08 04:06:46;;;;;;;3.55;1.30;;;19.20;61.90;;;;;;5056959;28;20620;-70
2022/11/08 04:09:12;;;;;;;4.28;1.10;;;19.20;61.90;;;;;;5055976;28;20136;-71
2022/11/08 04:17:06;;;;;;;1.90;1.00;;;19.20;61.80;;;;;;5056750;28;20048;-70
2022/11/08 04:22:16;;;;;;;3.42;1.10;;;19.20;61.80;;;;;;5050519;28;20206;-71
2022/11/08 04:24:41;;;;;;;2.92;1.25;;;19.20;61.80;;;;;;5055258;28;20045;-70
2022/11/08 04:27:08;;;;;;;3.72;1.40;;;19.20;61.80;;;;;;5048681;28;20044;-71
2022/11/08 04:29:33;;;;;;;3.38;1.40;;;19.20;61.80;;;;;;5061481;28;20036;-71
2022/11/08 04:31:59;;;;;;;4.68;1.10;;;19.20;61.80;;;;;;5052718;28;20048;-71
2022/11/08 04:34:25;;;;;;;4.28;1.10;;;19.20;61.80;;;;;;5062355;28;20113;-72
2022/11/08 04:36:50;;;;;;;3.40;1.15;;;19.20;62.00;;;;;;5059129;28;20048;-71
2022/11/08 04:39:16;;;;;;;4.45;1.20;;;19.20;61.70;;;;;;5051475;28;20541;-71
2022/11/08 04:41:41;;;;;;;2.10;1.00;;;19.20;61.70;;;;;;5053434;28;20062;-70
2022/11/08 04:44:09;;;;;;;3.92;1.27;;;19.20;61.70;;;;;;5055944;28;20144;-70
2022/11/08 04:46:35;;;;;;;4.05;1.23;;;19.30;61.70;;;;;;5054052;28;20049;-71
2022/11/08 04:49:00;;;;;;;3.15;1.00;;;19.20;61.70;;;;;;5058343;28;20090;-72
2022/11/08 04:51:33;;;;;;;5.45;1.60;;;19.20;61.60;;;;;;5053012;28;20499;-71
2022/11/08 04:54:00;;;;;;;3.20;1.10;;;19.20;61.60;;;;;;5060826;28;20418;-73
2022/11/08 04:56:27;;;;;;;2.35;1.10;;;19.20;61.60;;;;;;5060183;28;20483;-73
2022/11/08 04:58:56;;;;;;;3.10;1.03;;;19.20;61.50;;;;;;5053249;28;20510;-72
2022/11/08 05:01:27;;;;;;;3.53;1.00;;;19.20;61.50;;;;;;5053698;28;21095;-72
2022/11/08 05:03:54;;;;;;;2.30;1.00;;;19.20;61.50;;;;;;5057704;28;20337;-72
2022/11/08 05:06:22;;;;;;;2.75;1.00;;;19.20;61.50;;;;;;5051502;28;20101;-72
2022/11/08 05:08:47;;;;;;;4.00;1.23;;;19.20;61.50;;;;;;5057023;28;20147;-72
2022/11/08 05:11:17;;;;;;;2.40;1.10;;;19.20;61.50;;;;;;5052924;28;20586;-72
2022/11/08 05:13:43;;;;;;;3.28;1.20;;;19.20;61.50;;;;;;5054267;28;20049;-72
2022/11/08 05:16:21;;;;;;;3.15;1.10;;;19.20;61.40;;;;;;5049356;28;20064;-72
2022/11/08 05:18:47;;;;;;;3.25;1.00;;;19.20;61.40;;;;;;5057427;28;20075;-73
2022/11/08 05:24:00;;;;;;;1.67;0.80;;;19.20;61.40;;;;;;5056820;28;20075;-74
2022/11/08 05:26:26;;;;;;;2.63;0.90;;;19.20;61.40;;;;;;5052891;28;20055;-72
2022/11/08 05:28:52;;;;;;;4.45;1.08;;;19.20;61.40;;;;;;5050790;28;20037;-72
2022/11/08 05:31:17;;;;;;;3.00;1.00;;;19.20;61.30;;;;;;5053051;28;20040;-72
2022/11/08 05:33:43;;;;;;;2.67;1.00;;;19.20;61.30;;;;;;5055313;28;20036;-71
2022/11/08 05:36:12;;;;;;;2.25;0.85;;;19.20;61.30;;;;;;5050841;28;20055;-72
2022/11/08 05:38:41;;;;;;;4.03;1.20;;;19.20;61.30;;;;;;5053926;28;20049;-71
2022/11/08 05:41:09;;;;;;;2.45;1.10;;;19.20;61.30;;;;;;5087864;27;20057;-72
2022/11/08 05:43:35;;;;;;;1.90;1.10;;;19.20;61.30;;;;;;5061589;28;20134;-72
2022/11/08 05:46:01;;;;;;;2.33;0.98;;;19.20;61.20;;;;;;5055836;28;20485;-73
2022/11/08 05:48:26;;;;;;;2.47;1.10;;;19.20;61.20;;;;;;5054393;28;20048;-71
2022/11/08 05:50:53;;;;;;;3.00;1.08;;;19.20;61.20;;;;;;5056935;28;20050;-72
2022/11/08 05:53:18;;;;;;;3.33;1.00;;;19.20;61.20;;;;;;5079452;28;20532;-72
2022/11/08 05:55:44;;;;;;;1.67;0.77;;;19.20;61.20;;;;;;5052858;28;20501;-72
2022/11/08 05:58:10;;;;;;;2.60;1.20;;;19.20;61.10;;;;;;5056665;28;20127;-72
2022/11/08 06:00:35;;;;;;;2.80;0.93;;;19.20;61.10;;;;;;5052778;28;20055;-72
2022/11/08 06:03:03;;;;;;;2.53;0.90;;;19.20;61.10;;;;;;5058466;28;20104;-73
2022/11/08 06:05:29;;;;;;;3.55;1.00;;;19.20;61.20;;;;;;5053139;28;20688;-73
2022/11/08 06:07:54;;;;;;;1.83;0.80;;;19.20;61.10;;;;;;5058041;28;20105;-72
2022/11/08 06:10:21;;;;;;;1.55;0.95;;;19.20;61.10;;;;;;5052568;28;20094;-72
2022/11/08 06:12:47;;;;;;;2.20;1.00;;;19.20;61.10;;;;;;5083580;28;20472;-73
2022/11/08 06:15:13;;;;;;;2.95;1.00;;;19.20;61.00;;;;;;5052499;28;20055;-72
2022/11/08 06:17:38;;;;;;;1.90;0.95;;;19.20;61.00;;;;;;5060632;28;20032;-72
2022/11/08 06:20:10;;;;;;;5.57;1.27;;;19.20;61.00;;;;;;5053576;28;20052;-71
2022/11/08 06:22:39;;;;;;;3.55;1.15;;;19.20;61.00;;;;;;5057378;28;20041;-71
2022/11/08 06:25:04;;;;;;;2.78;1.02;;;19.20;61.00;;;;;;5052866;28;20086;-72
2022/11/08 06:27:30;;;;;;;1.55;0.90;;;19.20;61.00;;;;;;5051846;28;20056;-72
2022/11/08 06:29:56;;;;;;;1.45;0.80;;;19.20;61.00;;;;;;5055641;28;20040;-73
2022/11/08 06:32:21;;;;;;;3.88;1.17;;;19.20;60.90;;;;;;5054584;28;20091;-73
2022/11/08 06:34:47;;;;;;;2.70;1.00;;;19.20;60.90;;;;;;5058147;28;20159;-72
2022/11/08 06:37:14;;;;;;;2.78;0.90;;;19.20;60.90;;;;;;5050313;28;20067;-73
2022/11/08 06:39:40;;;;;;;2.53;1.02;;;19.20;60.90;;;;;;5052448;28;20040;-73
2022/11/08 06:42:06;;;;;;;1.38;0.80;;;19.20;61.00;;;;;;5054727;28;20996;-72
2022/11/08 06:44:31;;;;;;;2.97;1.10;;;19.20;61.10;;;;;;5053447;28;20147;-73
2022/11/08 06:46:58;;;;;;;4.68;1.13;;;19.20;61.10;;;;;;5056318;28;20064;-71
2022/11/08 06:49:24;;;;;;;3.10;1.02;;;19.30;61.30;;;;;;5049164;28;20090;-73
2022/11/08 06:51:50;;;;;;;3.75;1.23;;;19.30;61.30;;;;;;5053726;28;20117;-71
2022/11/08 06:54:16;;;;;;;1.98;1.00;;;19.30;61.40;;;;;;5052769;28;20048;-72
2022/11/08 06:56:42;;;;;;;5.13;1.00;;;19.30;61.30;;;;;;5050617;28;20048;-72
2022/11/08 06:59:08;;;;;;;3.60;1.10;;;19.30;61.40;;;;;;5053859;28;20059;-71
2022/11/08 07:01:35;;;;;;;2.42;1.00;;;19.30;61.50;;;;;;5063385;28;20081;-73
2022/11/08 07:04:01;;;;;;;2.78;0.82;;;19.30;61.40;;;;;;5053941;28;20061;-70
2022/11/08 07:06:27;;;;;;;2.38;1.02;;;19.30;61.50;;;;;;5054266;28;21007;-70
2022/11/08 07:08:52;;;;;;;4.70;1.10;;;19.30;62.20;;;;;;5053643;28;20120;-72
2022/11/08 07:11:18;;;;;;;3.05;1.20;;;19.30;61.40;;;;;;5049897;28;20063;-73
2022/11/08 07:13:43;;;;;;;4.13;1.30;;;19.30;61.50;;;;;;5056915;28;20464;-72
2022/11/08 07:16:09;;;;;;;4.22;1.20;;;19.30;61.50;;;;;;5051347;28;20371;-73
2022/11/08 07:18:35;;;;;;;3.70;1.10;;;19.20;61.50;;;;;;5052745;28;20648;-70
2022/11/08 07:21:01;;;;;;;4.45;1.10;;;19.30;61.60;;;;;;5057268;28;20540;-72
2022/11/08 07:23:27;;;;;;;2.67;1.23;;;19.30;61.60;;;;;;5058001;28;20147;-69
2022/11/08 07:25:53;;;;;;;8.45;1.30;;;19.20;61.60;;;;;;5061184;28;20040;-70
2022/11/08 07:28:19;;;;;;;6.53;1.30;;;19.30;61.70;;;;;;5056341;28;20047;-70
2022/11/08 07:30:46;;;;;;;2.90;1.00;;;19.30;61.60;;;;;;5060605;28;20082;-71
2022/11/08 07:33:14;;;;;;;5.47;1.40;;;19.30;61.60;;;;;;5056623;28;20049;-69
2022/11/08 07:35:40;;;;;;;2.90;1.27;;;19.30;61.60;;;;;;5058210;28;20048;-69
2022/11/08 07:38:06;;;;;;;7.93;1.23;;;19.30;62.30;;;;;;5057314;28;20036;-74
2022/11/08 07:40:34;;;;;;;4.05;1.30;;;19.30;61.50;;;;;;5044567;28;20179;-72
2022/11/08 07:43:00;;;;;;;5.43;1.30;;;19.30;61.50;;;;;;5054627;28;20155;-73
2022/11/08 07:45:28;;;;;;;4.10;1.15;;;19.30;61.50;;;;;;5051271;28;20048;-69
2022/11/08 07:47:58;;;;;;;4.13;1.10;;;19.30;61.60;;;;;;5058018;28;20044;-70
2022/11/08 07:50:23;;;;;;;4.68;1.17;;;19.30;61.60;;;;;;5053016;28;20162;-72
2022/11/08 07:52:49;;;;;;;2.42;1.10;;;19.30;61.60;;;;;;5058641;28;20051;-72
2022/11/08 07:55:15;;;;;;;6.80;1.88;;;19.30;61.50;;;;;;5052564;28;20580;-73
2022/11/08 07:57:40;;;;;;;12.35;1.38;;;19.30;61.60;;;;;;5056956;28;20143;-82
2022/11/08 08:00:07;;;;;;;6.50;1.50;;;19.30;61.60;;;;;;5066294;28;20188;-80
2022/11/08 08:02:32;;;;;;;3.65;1.27;;;19.30;61.50;;;;;;5054846;28;20536;-82
2022/11/08 08:04:58;;;;;;;3.00;1.20;;;19.30;61.50;;;;;;5057795;28;20040;-83
2022/11/08 08:07:23;;;;;;;5.30;1.13;;;19.30;61.50;;;;;;5051364;28;20800;-83
2022/11/08 08:09:49;;;;;;;3.83;1.30;;;19.40;61.50;;;;;;5063774;28;20102;-76
2022/11/08 08:12:14;;;;;;;3.90;1.40;;;19.30;61.40;;;;;;5055849;28;20446;-73
2022/11/08 08:14:40;;;;;;;4.13;1.17;;;19.30;61.30;;;;;;5060084;28;20115;-75
2022/11/08 08:17:06;;;;;;;4.32;1.20;;;19.40;61.30;;;;;;5066861;28;20060;-74
2022/11/08 08:19:31;;;;;;;2.50;1.20;;;19.30;61.20;;;;;;5055643;28;20158;-71
2022/11/08 08:21:57;;;;;;;5.35;1.33;;;19.40;61.90;;;;;;5058383;28;20036;-70
2022/11/08 08:24:22;;;;;;;5.88;1.17;;;19.40;61.00;;;;;;5055996;28;20066;-72
2022/11/08 08:26:48;;;;;;;5.35;1.35;;;19.40;61.00;;;;;;5059363;28;20044;-77
2022/11/08 08:29:13;;;;;;;3.10;1.20;;;19.40;60.90;;;;;;5056975;28;20083;-79
2022/11/08 08:31:39;;;;;;;2.72;1.10;;;19.40;60.80;;;;;;5055439;28;20063;-75
2022/11/08 08:34:04;;;;;;;5.18;1.40;;;19.40;60.80;;;;;;5068635;28;20805;-78
2022/11/08 08:36:30;;;;;;;4.60;1.35;;;19.40;60.70;;;;;;5058683;28;20568;-74
2022/11/08 08:38:56;;;;;;;4.65;1.35;;;19.40;60.60;;;;;;5059804;28;20093;-74
2022/11/08 08:41:21;;;;;;;4.15;1.00;;;19.40;60.60;;;;;;5053669;28;20048;-79
2022/11/08 08:43:47;;;;;;;6.45;1.17;;;19.30;60.40;;;;;;5058677;28;20149;-75
2022/11/08 08:46:12;;;;;;;6.38;1.67;;;19.40;60.50;;;;;;5055627;28;20544;-71
2022/11/08 08:48:38;;;;;;;3.58;1.05;;;19.40;60.30;;;;;;5059694;28;20494;-72
2022/11/08 08:51:04;;;;;;;3.78;1.10;;;19.40;60.30;;;;;;5049098;28;20083;-73
2022/11/08 08:53:29;;;;;;;3.38;1.33;;;19.50;60.30;;;;;;5059524;28;20045;-80
2022/11/08 08:55:55;;;;;;;2.88;1.15;;;19.50;60.30;;;;;;5054033;28;20063;-80
2022/11/08 08:58:21;;;;;;;3.35;1.15;;;19.50;60.20;;;;;;5054958;28;20164;-81
2022/11/08 09:00:47;;;;;;;3.97;1.10;;;19.50;60.10;;;;;;5059329;28;20040;-79
2022/11/08 09:03:13;;;;;;;4.32;1.17;;;19.50;60.10;;;;;;5057271;28;20406;-71
2022/11/08 09:05:43;;;;;;;5.60;1.23;;;19.50;60.10;;;;;;5056978;28;20064;-71
2022/11/08 09:08:09;;;;;;;2.97;1.10;;;19.50;60.00;;;;;;5056352;28;20503;-71
2022/11/08 09:10:35;;;;;;;3.60;1.27;;;19.50;60.00;;;;;;5054187;28;20127;-76
2022/11/08 09:13:02;;;;;;;3.15;1.35;;;19.50;60.00;;;;;;5057609;28;20024;-78
2022/11/08 09:15:28;;;;;;;4.95;1.05;;;19.50;60.00;;;;;;5058465;28;20181;-72
2022/11/08 09:17:54;;;;;;;3.40;1.20;;;19.50;59.90;;;;;;5063886;28;20112;-75
2022/11/08 09:20:20;;;;;;;6.85;1.23;;;19.50;60.00;;;;;;5051679;28;20860;-70
2022/11/08 09:22:45;;;;;;;4.40;1.13;;;19.50;60.00;;;;;;5046290;28;20040;-72
2022/11/08 09:25:12;;;;;;;2.42;0.98;;;19.50;60.00;;;;;;5078916;27;20040;-69
2022/11/08 09:27:51;;;;;;;2.38;1.00;;;19.60;60.10;;;;;;5051214;28;20028;-73
2022/11/08 09:30:20;;;;;;;4.50;1.23;;;19.50;60.00;;;;;;5050362;28;20086;-73
2022/11/08 09:32:58;;;;;;;7.57;1.25;;;19.60;60.10;;;;;;5052617;28;20124;-72
2022/11/08 09:35:59;;;;;;;3.60;1.20;;;19.50;60.10;;;;;;5050732;28;20044;-76
2022/11/08 09:38:47;;;;;;;3.90;1.17;;;19.60;60.00;;;;;;5038197;28;20191;-76
2022/11/08 09:41:41;;;;;;;11.43;1.10;;;19.60;60.10;;;;;;5031034;28;20094;-75
2022/11/08 09:48:00;;;;;;;2.20;1.10;;;19.70;60.10;;;;;;5057972;28;20059;-75
2022/11/08 09:50:40;;;;;;;6.40;1.40;;;19.70;60.10;;;;;;5083608;27;20048;-75
2022/11/08 09:53:21;;;;;;;1.85;1.00;;;19.70;60.10;;;;;;5057062;28;20028;-74
2022/11/08 09:55:53;;;;;;;2.42;1.00;;;19.70;60.10;;;;;;5060601;28;20063;-73
2022/11/08 09:58:29;;;;;;;2.80;1.00;;;19.70;60.10;;;;;;5083827;27;20051;-75
2022/11/08 10:00:54;;;;;;;5.57;1.27;;;19.70;60.10;;;;;;5053446;28;20222;-74
2022/11/08 10:03:25;;;;;;;2.20;1.00;;;19.70;60.10;;;;;;5054441;28;20040;-76
2022/11/08 10:06:11;;;;;;;3.25;1.45;;;19.70;60.10;;;;;;5053642;28;20048;-74
2022/11/08 10:09:10;;;;;;;2.20;1.13;;;19.70;60.00;;;;;;5053859;28;20147;-74
2022/11/08 10:11:54;;;;;;;2.63;1.17;;;19.70;60.00;;;;;;5057134;28;20055;-71
2022/11/08 10:14:41;;;;;;;2.58;1.00;;;19.70;59.90;;;;;;5054519;28;20050;-71
2022/11/08 10:17:39;;;;;;;2.20;1.20;;;19.70;59.80;;;;;;5051511;28;20193;-68
2022/11/08 10:20:29;;;;;;;5.40;1.55;;;19.70;59.60;;;;;;5051981;28;20519;-73
2022/11/08 10:27:13;;;;;;;7.18;1.27;;;19.70;59.80;;;;;;5311561;22;20056;-82
2022/11/08 10:29:44;;;;;;;3.53;1.00;;;19.70;60.00;;;;;;4981563;28;20091;-77
2022/11/08 10:32:20;;;;;;;6.95;1.40;;;19.70;60.00;;;;;;5025185;28;20068;-78
2022/11/08 10:35:04;;;;;;;4.10;1.00;;;19.70;60.00;;;;;;5009655;28;20170;-74
2022/11/08 10:41:01;;;;;;;2.17;1.00;;;19.70;59.90;;;;;;5026901;28;20528;-81
2022/11/08 10:43:39;;;;;;;3.92;1.45;;;19.70;60.00;;;;;;5017945;28;20898;-83
2022/11/08 10:46:30;;;;;;;3.15;1.10;;;19.70;59.90;;;;;;5023358;28;20099;-81
2022/11/08 10:49:23;;;;;;;1.92;1.05;;;19.70;59.80;;;;;;5026503;28;20065;-79
2022/11/08 10:51:55;;;;;;;3.78;1.40;;;19.70;59.90;;;;;;4984485;28;20061;-83
2022/11/08 10:54:55;;;;;;;3.85;1.30;;;19.70;59.90;;;;;;5028430;28;20485;-81
2022/11/08 10:57:42;;;;;;;4.97;1.00;;;19.70;59.80;;;;;;5026451;28;20044;-78
2022/11/08 11:00:23;;;;;;;7.90;1.50;;;19.70;59.90;;;;;;5030531;28;20065;-81
2022/11/08 11:02:59;;;;;;;2.65;1.17;;;19.70;59.90;;;;;;5025910;28;20499;-79
2022/11/08 11:05:28;;;;;;;6.40;1.27;;;19.70;59.90;;;;;;5025923;28;20037;-81
2022/11/08 11:08:09;;;;;;;2.83;0.93;;;19.70;60.00;;;;;;5033498;28;20151;-81
2022/11/08 11:10:49;;;;;;;5.15;1.27;;;19.70;59.90;;;;;;5028405;28;20311;-82
2022/11/08 11:13:40;;;;;;;5.85;1.00;;;19.60;59.80;;;;;;5026879;28;20211;-74
2022/11/08 11:16:15;;;;;;;2.75;1.15;;;19.60;59.90;;;;;;5030511;28;20080;-75
2022/11/08 11:18:59;;;;;;;3.90;1.27;;;19.60;60.00;;;;;;5035376;28;20083;-73
2022/11/08 11:21:25;;;;;;;2.85;1.42;;;19.60;59.90;;;;;;5027821;28;20119;-74
2022/11/08 11:23:53;;;;;;;2.38;1.00;;;19.60;60.00;;;;;;5028937;28;20041;-73
2022/11/08 11:26:26;;;;;;;4.25;1.55;;;19.60;59.90;;;;;;5014904;28;20057;-73
2022/11/08 11:29:04;;;;;;;3.10;1.20;;;19.60;59.90;;;;;;5023443;28;20125;-73
2022/11/08 11:31:38;;;;;;;1.98;1.10;;;19.60;59.90;;;;;;5024721;28;20057;-73
2022/11/08 11:34:16;;;;;;;1.42;1.00;;;19.60;59.80;;;;;;5024771;28;20057;-72
2022/11/08 11:36:48;;;;;;;5.30;1.20;;;19.60;59.70;;;;;;5042163;28;20052;-74
2022/11/08 11:39:31;;;;;;;4.35;1.20;;;19.60;59.70;;;;;;5022762;28;20045;-70
2022/11/08 11:42:08;;;;;;;6.97;1.20;;;19.60;59.50;;;;;;5025146;28;20041;-71
2022/11/08 11:45:01;;;;;;;7.25;1.20;;;19.60;59.60;;;;;;5023434;28;20061;-71
2022/11/08 11:47:38;;;;;;;5.68;1.40;;;19.60;59.60;;;;;;5009276;28;20414;-80
2022/11/08 11:50:31;;;;;;;8.35;1.38;;;19.60;59.70;;;;;;5022723;28;20048;-71
2022/11/08 11:52:59;;;;;;;15.60;1.40;;;19.60;59.80;;;;;;5018999;28;20119;-72
2022/11/08 11:56:04;;;;;;;5.93;1.80;;;19.60;59.80;;;;;;5019020;28;20086;-71
2022/11/08 11:58:59;;;;;;;2.63;1.08;;;19.60;60.00;;;;;;5020443;28;20063;-68
2022/11/08 12:01:37;;;;;;;6.95;1.23;;;19.60;60.00;;;;;;5022436;28;20069;-69
2022/11/08 12:04:05;;;;;;;3.30;1.37;;;19.60;60.00;;;;;;5022597;28;20041;-74
2022/11/08 12:07:01;;;;;;;7.32;1.60;;;19.60;60.00;;;;;;5021682;28;20188;-72
2022/11/08 12:10:01;;;;;;;4.25;1.45;;;19.60;59.80;;;;;;5021494;28;20044;-70
2022/11/08 12:13:04;;;;;;;5.25;1.50;;;19.60;60.00;;;;;;5022062;28;20068;-74
2022/11/08 12:15:58;;;;;;;4.03;1.50;;;19.60;60.00;;;;;;5023920;28;20273;-74
2022/11/08 12:18:48;;;;;;;6.00;1.60;;;19.60;60.00;;;;;;5016808;28;20045;-76
2022/11/08 12:21:30;;;;;;;4.32;1.40;;;19.70;60.10;;;;;;5021296;28;20475;-72
2022/11/08 12:24:18;;;;;;;5.93;1.55;;;19.70;60.00;;;;;;5023916;28;20060;-75
2022/11/08 12:27:04;;;;;;;6.53;1.73;;;19.70;60.00;;;;;;5022722;28;20837;-73
2022/11/08 12:29:41;;;;;;;2.92;1.50;;;19.60;59.90;;;;;;5022332;28;20045;-72
2022/11/08 12:32:18;;;;;;;3.58;1.58;;;19.70;59.90;;;;;;5026184;28;20488;-72
2022/11/08 12:34:56;;;;;;;2.28;1.30;;;19.70;59.90;;;;;;5029600;28;20041;-76
2022/11/08 12:37:54;;;;;;;8.02;1.73;;;19.70;59.90;;;;;;5008002;28;20601;-71
2022/11/08 12:40:31;;;;;;;5.30;1.77;;;19.60;59.80;;;;;;5042758;28;20168;-75
2022/11/08 12:43:21;;;;;;;2.85;1.50;;;19.60;59.90;;;;;;5021950;28;20063;-73
2022/11/08 12:46:02;;;;;;;5.10;1.40;;;19.60;59.80;;;;;;5016560;28;20045;-73
2022/11/08 12:48:28;;;;;;;4.30;1.50;;;19.60;59.80;;;;;;5024445;28;20615;-73
2022/11/08 12:51:17;;;;;;;2.88;1.50;;;19.60;59.80;;;;;;5020954;28;20049;-69
2022/11/08 12:54:01;;;;;;;5.38;1.50;;;19.60;59.80;;;;;;5023715;28;20033;-75
2022/11/08 12:56:34;;;;;;;3.80;1.48;;;19.60;59.80;;;;;;5016079;28;20103;-70
2022/11/08 12:59:01;;;;;;;4.55;1.60;;;19.60;59.80;;;;;;5033866;28;20041;-75
2022/11/08 13:01:26;;;;;;;4.15;1.42;;;19.60;59.80;;;;;;5028795;28;20037;-73
2022/11/08 13:04:19;;;;;;;2.20;1.45;;;19.60;59.70;;;;;;5032124;28;20053;-73
2022/11/08 13:06:56;;;;;;;5.15;1.60;;;19.60;59.50;;;;;;5025149;28;20065;-72
2022/11/08 13:09:43;;;;;;;5.25;1.98;;;19.60;59.50;;;;;;5022732;28;20053;-70
2022/11/08 13:12:12;;;;;;;4.70;1.90;;;19.70;59.40;;;;;;5025183;28;20095;-70
2022/11/08 13:14:38;;;;;;;6.22;1.60;;;19.70;59.40;;;;;;5029195;28;20357;-72
2022/11/08 13:17:21;;;;;;;4.20;1.80;;;19.60;59.30;;;;;;5031384;28;20056;-72
2022/11/08 13:19:47;;;;;;;4.32;1.50;;;19.70;59.30;;;;;;5033990;28;20510;-72
2022/11/08 13:22:28;;;;;;;4.50;1.67;;;19.60;59.20;;;;;;5019024;28;20198;-72
2022/11/08 13:25:01;;;;;;;3.13;1.70;;;19.70;59.20;;;;;;5031433;28;20056;-72
2022/11/08 13:27:35;;;;;;;2.00;1.25;;;19.70;59.20;;;;;;5026576;28;20094;-74
2022/11/08 13:30:24;;;;;;;4.38;1.50;;;19.70;59.10;;;;;;5033618;28;20115;-72
2022/11/08 13:32:52;;;;;;;3.80;1.45;;;19.60;59.10;;;;;;5034326;28;20052;-73
2022/11/08 13:35:21;;;;;;;;;;;19.60;59.20;;;;;;5022238;28;20061;-73
2022/11/08 13:38:05;;;;;;;4.57;1.50;;;19.60;59.50;;;;;;5029721;28;19928;-72